sensor_id;sensor_type;location;lat;lon;timestamp;temperature;humidity
76759;DHT22;65701;45.588;5.186;2022-12-01T06:15:37;6.82;82.40
76759;DHT22;65701;45.588;5.186;2022-12-01T06:18:03;6.80;82.39
76759;DHT22;65701;45.588;5.186;2022-12-01T06:20:29;6.84;82.31
76759;DHT22;65701;45.588;5.186;2022-12-01T06:22:54;6.80;82.35
76759;DHT22;65701;45.588;5.186;2022-12-01T06:25:19;6.80;82.35
76759;DHT22;65701;45.588;5.186;2022-12-01T06:27:45;6.83;82.39
76759;DHT22;65701;45.588;5.186;2022-12-01T06:30:11;6.82;82.35
76759;DHT22;65701;45.588;5.186;2022-12-01T06:32:37;6.83;82.31
76759;DHT22;65701;45.588;5.186;2022-12-01T06:35:02;6.79;82.26
76759;DHT22;65701;45.588;5.186;2022-12-01T06:37:28;6.76;82.13
76759;DHT22;65701;45.588;5.186;2022-12-01T06:39:53;6.72;82.09
76759;DHT22;65701;45.588;5.186;2022-12-01T06:42:19;6.69;82.04
76759;DHT22;65701;45.588;5.186;2022-12-01T06:44:44;6.68;82.10
76759;DHT22;65701;45.588;5.186;2022-12-01T06:47:10;6.69;82.15
76759;DHT22;65701;45.588;5.186;2022-12-01T06:49:35;6.71;82.28
76759;DHT22;65701;45.588;5.186;2022-12-01T06:55:26;6.73;82.26
76759;DHT22;65701;45.588;5.186;2022-12-01T07:01:19;6.82;82.27
76759;DHT22;65701;45.588;5.186;2022-12-01T07:04:09;6.84;82.29
76759;DHT22;65701;45.588;5.186;2022-12-01T07:06:45;6.83;82.22
76759;DHT22;65701;45.588;5.186;2022-12-01T07:09:48;6.83;82.23
76759;DHT22;65701;45.588;5.186;2022-12-01T07:16:11;6.89;82.31
76759;DHT22;65701;45.588;5.186;2022-12-01T07:23:10;6.90;82.18
76759;DHT22;65701;45.588;5.186;2022-12-01T07:25:35;6.91;82.16
76759;DHT22;65701;45.588;5.186;2022-12-01T07:28:04;6.93;82.15
76759;DHT22;65701;45.588;5.186;2022-12-01T07:30:36;6.93;82.13
76759;DHT22;65701;45.588;5.186;2022-12-01T07:33:19;6.91;82.14
76759;DHT22;65701;45.588;5.186;2022-12-01T07:35:45;6.91;82.09
76759;DHT22;65701;45.588;5.186;2022-12-01T07:38:10;6.84;81.71
76759;DHT22;65701;45.588;5.186;2022-12-01T07:40:44;6.80;81.62
76759;DHT22;65701;45.588;5.186;2022-12-01T07:43:15;6.76;81.88
76759;DHT22;65701;45.588;5.186;2022-12-01T07:45:49;6.77;81.84
76759;DHT22;65701;45.588;5.186;2022-12-01T07:48:20;6.73;81.73
76759;DHT22;65701;45.588;5.186;2022-12-01T07:51:11;6.71;81.75
76759;DHT22;65701;45.588;5.186;2022-12-01T07:53:47;6.69;82.00
76759;DHT22;65701;45.588;5.186;2022-12-01T07:56:20;6.68;81.83
76759;DHT22;65701;45.588;5.186;2022-12-01T07:58:46;6.72;82.01
76759;DHT22;65701;45.588;5.186;2022-12-01T08:01:21;6.76;82.07
76759;DHT22;65701;45.588;5.186;2022-12-01T08:03:53;6.76;81.98
76759;DHT22;65701;45.588;5.186;2022-12-01T08:06:20;6.80;82.02
76759;DHT22;65701;45.588;5.186;2022-12-01T08:08:46;6.84;82.06
76759;DHT22;65701;45.588;5.186;2022-12-01T08:11:16;6.84;82.05
76759;DHT22;65701;45.588;5.186;2022-12-01T08:13:48;6.87;82.09
76759;DHT22;65701;45.588;5.186;2022-12-01T08:16:15;6.90;82.09
76759;DHT22;65701;45.588;5.186;2022-12-01T08:18:44;6.90;82.09
76759;DHT22;65701;45.588;5.186;2022-12-01T08:21:14;6.96;82.05
76759;DHT22;65701;45.588;5.186;2022-12-01T08:23:40;6.96;82.04
76759;DHT22;65701;45.588;5.186;2022-12-01T08:26:16;6.97;81.91
76759;DHT22;65701;45.588;5.186;2022-12-01T08:28:43;6.97;81.97
76759;DHT22;65701;45.588;5.186;2022-12-01T08:31:21;7.00;82.03
76759;DHT22;65701;45.588;5.186;2022-12-01T08:33:55;7.00;81.94
76759;DHT22;65701;45.588;5.186;2022-12-01T08:36:21;7.03;81.86
76759;DHT22;65701;45.588;5.186;2022-12-01T08:38:50;7.03;81.86
76759;DHT22;65701;45.588;5.186;2022-12-01T08:41:16;7.00;81.76
76759;DHT22;65701;45.588;5.186;2022-12-01T08:43:46;6.96;81.75
76759;DHT22;65701;45.588;5.186;2022-12-01T08:46:20;6.93;81.67
76759;DHT22;65701;45.588;5.186;2022-12-01T08:48:50;6.94;81.73
76759;DHT22;65701;45.588;5.186;2022-12-01T08:51:25;6.93;81.68
76759;DHT22;65701;45.588;5.186;2022-12-01T08:53:56;6.91;81.70
76759;DHT22;65701;45.588;5.186;2022-12-01T08:56:33;6.91;81.64
76759;DHT22;65701;45.588;5.186;2022-12-01T08:58:59;6.93;81.66
76759;DHT22;65701;45.588;5.186;2022-12-01T09:01:25;6.91;81.56
76759;DHT22;65701;45.588;5.186;2022-12-01T09:04:05;6.93;81.68
76759;DHT22;65701;45.588;5.186;2022-12-01T09:06:41;6.94;81.65
76759;DHT22;65701;45.588;5.186;2022-12-01T09:09:14;6.94;81.62
76759;DHT22;65701;45.588;5.186;2022-12-01T09:11:44;6.94;81.61
76759;DHT22;65701;45.588;5.186;2022-12-01T09:14:18;6.96;81.70
76759;DHT22;65701;45.588;5.186;2022-12-01T09:16:50;6.99;81.75
76759;DHT22;65701;45.588;5.186;2022-12-01T09:19:17;7.03;81.78
76759;DHT22;65701;45.588;5.186;2022-12-01T09:21:43;7.08;81.76
76759;DHT22;65701;45.588;5.186;2022-12-01T09:24:11;7.05;81.37
76759;DHT22;65701;45.588;5.186;2022-12-01T09:26:37;7.11;81.58
76759;DHT22;65701;45.588;5.186;2022-12-01T09:29:07;7.08;81.65
76759;DHT22;65701;45.588;5.186;2022-12-01T09:31:43;7.14;81.64
76759;DHT22;65701;45.588;5.186;2022-12-01T09:34:14;7.17;81.64
76759;DHT22;65701;45.588;5.186;2022-12-01T09:36:43;7.20;81.59
76759;DHT22;65701;45.588;5.186;2022-12-01T09:39:12;7.20;81.47
76759;DHT22;65701;45.588;5.186;2022-12-01T09:44:46;7.18;81.27
76759;DHT22;65701;45.588;5.186;2022-12-01T09:47:32;7.11;81.01
76759;DHT22;65701;45.588;5.186;2022-12-01T09:50:16;7.07;80.94
76759;DHT22;65701;45.588;5.186;2022-12-01T09:53:05;7.04;81.15
76759;DHT22;65701;45.588;5.186;2022-12-01T09:56:18;7.03;81.28
76759;DHT22;65701;45.588;5.186;2022-12-01T09:59:05;7.07;81.28
76759;DHT22;65701;45.588;5.186;2022-12-01T10:01:42;7.05;81.26
76759;DHT22;65701;45.588;5.186;2022-12-01T10:04:21;7.10;81.40
76759;DHT22;65701;45.588;5.186;2022-12-01T10:07:28;7.17;81.39
76759;DHT22;65701;45.588;5.186;2022-12-01T10:10:12;7.18;81.37
76759;DHT22;65701;45.588;5.186;2022-12-01T10:12:47;7.22;81.24
76759;DHT22;65701;45.588;5.186;2022-12-01T10:15:51;7.25;81.19
76759;DHT22;65701;45.588;5.186;2022-12-01T10:27:48;7.21;81.00
76759;DHT22;65701;45.588;5.186;2022-12-01T10:30:39;7.22;81.13
76759;DHT22;65701;45.588;5.186;2022-12-01T10:33:25;7.25;81.05
76759;DHT22;65701;45.588;5.186;2022-12-01T10:36:04;7.27;81.05
76759;DHT22;65701;45.588;5.186;2022-12-01T10:41:22;7.35;81.17
76759;DHT22;65701;45.588;5.186;2022-12-01T10:44:01;7.32;81.06
76759;DHT22;65701;45.588;5.186;2022-12-01T10:47:04;7.34;80.96
76759;DHT22;65701;45.588;5.186;2022-12-01T10:53:00;7.48;81.15
76759;DHT22;65701;45.588;5.186;2022-12-01T10:55:41;7.49;81.01
76759;DHT22;65701;45.588;5.186;2022-12-01T10:58:21;7.51;80.60
76759;DHT22;65701;45.588;5.186;2022-12-01T11:01:11;7.49;80.33
76759;DHT22;65701;45.588;5.186;2022-12-01T11:04:20;7.51;80.67
76759;DHT22;65701;45.588;5.186;2022-12-01T11:07:21;7.48;80.47
76759;DHT22;65701;45.588;5.186;2022-12-01T11:18:40;7.55;80.11
76759;DHT22;65701;45.588;5.186;2022-12-01T11:21:13;7.54;80.06
76759;DHT22;65701;45.588;5.186;2022-12-01T11:23:49;7.59;80.36
76759;DHT22;65701;45.588;5.186;2022-12-01T11:26:30;7.62;80.33
76759;DHT22;65701;45.588;5.186;2022-12-01T11:29:35;7.63;80.28
76759;DHT22;65701;45.588;5.186;2022-12-01T11:32:16;7.65;80.07
76759;DHT22;65701;45.588;5.186;2022-12-01T11:37:42;7.66;80.09
76759;DHT22;65701;45.588;5.186;2022-12-01T11:40:29;7.70;80.29
76759;DHT22;65701;45.588;5.186;2022-12-01T11:43:05;7.70;80.38
76759;DHT22;65701;45.588;5.186;2022-12-01T11:45:48;7.72;80.38
76759;DHT22;65701;45.588;5.186;2022-12-01T11:55:44;7.73;80.28
76759;DHT22;65701;45.588;5.186;2022-12-01T11:58:21;7.75;80.22
76759;DHT22;65701;45.588;5.186;2022-12-01T12:07:48;7.73;80.06
76759;DHT22;65701;45.588;5.186;2022-12-01T12:17:07;7.77;80.20
76759;DHT22;65701;45.588;5.186;2022-12-01T12:32:12;7.91;79.96
76759;DHT22;65701;45.588;5.186;2022-12-01T12:45:06;8.00;79.84
76759;DHT22;65701;45.588;5.186;2022-12-01T12:57:32;7.87;78.34
76759;DHT22;65701;45.588;5.186;2022-12-01T13:00:32;7.82;77.32
76759;DHT22;65701;45.588;5.186;2022-12-01T13:07:21;7.82;78.11
76759;DHT22;65701;45.588;5.186;2022-12-01T13:16:21;7.93;78.90
76759;DHT22;65701;45.588;5.186;2022-12-01T13:19:52;7.97;78.69
76759;DHT22;65701;45.588;5.186;2022-12-01T13:22:34;7.94;78.03
76759;DHT22;65701;45.588;5.186;2022-12-01T13:25:51;7.94;78.41
76759;DHT22;65701;45.588;5.186;2022-12-01T13:32:39;8.03;78.92
76759;DHT22;65701;45.588;5.186;2022-12-01T13:41:37;8.03;78.45
76759;DHT22;65701;45.588;5.186;2022-12-01T13:44:37;8.01;78.61
76759;DHT22;65701;45.588;5.186;2022-12-01T13:54:28;8.03;78.39
76759;DHT22;65701;45.588;5.186;2022-12-01T13:57:44;8.04;78.51
76759;DHT22;65701;45.588;5.186;2022-12-01T14:13:19;7.95;78.57
76759;DHT22;65701;45.588;5.186;2022-12-01T14:16:29;7.97;78.55
76759;DHT22;65701;45.588;5.186;2022-12-01T14:22:47;7.97;78.78
76759;DHT22;65701;45.588;5.186;2022-12-01T14:30:15;7.98;78.91
76759;DHT22;65701;45.588;5.186;2022-12-01T14:42:54;8.00;79.00
76759;DHT22;65701;45.588;5.186;2022-12-01T14:46:20;7.97;78.84
76759;DHT22;65701;45.588;5.186;2022-12-01T14:48:57;8.00;78.99
76759;DHT22;65701;45.588;5.186;2022-12-01T14:51:27;8.04;79.12
76759;DHT22;65701;45.588;5.186;2022-12-01T14:54:24;8.08;79.15
76759;DHT22;65701;45.588;5.186;2022-12-01T14:57:02;8.10;79.18
76759;DHT22;65701;45.588;5.186;2022-12-01T14:59:45;8.11;79.14
76759;DHT22;65701;45.588;5.186;2022-12-01T15:02:22;8.10;78.81
76759;DHT22;65701;45.588;5.186;2022-12-01T15:05:11;8.07;78.53
76759;DHT22;65701;45.588;5.186;2022-12-01T15:08:37;8.03;78.68
76759;DHT22;65701;45.588;5.186;2022-12-01T15:11:54;8.03;78.79
76759;DHT22;65701;45.588;5.186;2022-12-01T15:14:47;8.01;78.83
76759;DHT22;65701;45.588;5.186;2022-12-01T15:17:38;7.97;78.45
76759;DHT22;65701;45.588;5.186;2022-12-01T15:23:15;7.97;78.61
76759;DHT22;65701;45.588;5.186;2022-12-01T15:25:45;8.01;78.61
76759;DHT22;65701;45.588;5.186;2022-12-01T15:28:52;8.01;78.55
76759;DHT22;65701;45.588;5.186;2022-12-01T15:31:39;8.03;78.61
76759;DHT22;65701;45.588;5.186;2022-12-01T15:34:41;8.04;78.51
76759;DHT22;65701;45.588;5.186;2022-12-01T15:37:20;8.03;78.51
76759;DHT22;65701;45.588;5.186;2022-12-01T15:39:55;8.01;78.56
76759;DHT22;65701;45.588;5.186;2022-12-01T15:42:35;8.00;78.59
76759;DHT22;65701;45.588;5.186;2022-12-01T15:45:22;8.00;78.48
76759;DHT22;65701;45.588;5.186;2022-12-01T15:48:01;8.03;78.61
76759;DHT22;65701;45.588;5.186;2022-12-01T15:54:35;7.98;78.58
76759;DHT22;65701;45.588;5.186;2022-12-01T15:57:22;8.00;78.56
76759;DHT22;65701;45.588;5.186;2022-12-01T16:00:19;8.00;78.60
76759;DHT22;65701;45.588;5.186;2022-12-01T16:03:00;8.04;78.58
76759;DHT22;65701;45.588;5.186;2022-12-01T16:05:45;8.01;78.56
76759;DHT22;65701;45.588;5.186;2022-12-01T16:08:23;8.04;78.57
76759;DHT22;65701;45.588;5.186;2022-12-01T16:11:17;8.01;78.60
76759;DHT22;65701;45.588;5.186;2022-12-01T16:14:15;8.03;78.69
76759;DHT22;65701;45.588;5.186;2022-12-01T16:17:11;8.03;78.79
76759;DHT22;65701;45.588;5.186;2022-12-01T16:19:45;8.01;78.89
76759;DHT22;65701;45.588;5.186;2022-12-01T16:22:19;8.07;78.89
76759;DHT22;65701;45.588;5.186;2022-12-01T16:25:14;8.05;78.96
76759;DHT22;65701;45.588;5.186;2022-12-01T16:28:31;8.04;79.05
76759;DHT22;65701;45.588;5.186;2022-12-01T16:31:06;8.01;79.13
76759;DHT22;65701;45.588;5.186;2022-12-01T16:43:51;7.87;79.18
76759;DHT22;65701;45.588;5.186;2022-12-01T16:54:04;7.73;78.94
76759;DHT22;65701;45.588;5.186;2022-12-01T16:56:47;7.69;79.03
76759;DHT22;65701;45.588;5.186;2022-12-01T17:02:49;7.58;78.78
76759;DHT22;65701;45.588;5.186;2022-12-01T17:05:18;7.54;78.75
76759;DHT22;65701;45.588;5.186;2022-12-01T17:07:43;7.51;78.66
76759;DHT22;65701;45.588;5.186;2022-12-01T17:10:09;7.48;78.73
76759;DHT22;65701;45.588;5.186;2022-12-01T17:12:35;7.45;78.84
76759;DHT22;65701;45.588;5.186;2022-12-01T17:15:01;7.46;78.78
76759;DHT22;65701;45.588;5.186;2022-12-01T17:17:27;7.42;78.81
76759;DHT22;65701;45.588;5.186;2022-12-01T17:19:53;7.44;78.79
76759;DHT22;65701;45.588;5.186;2022-12-01T17:22:19;7.42;78.87
76759;DHT22;65701;45.588;5.186;2022-12-01T17:24:45;7.42;78.78
76759;DHT22;65701;45.588;5.186;2022-12-01T17:27:10;7.41;78.80
76759;DHT22;65701;45.588;5.186;2022-12-01T17:29:36;7.44;78.76
76759;DHT22;65701;45.588;5.186;2022-12-01T17:32:03;7.41;78.80
76759;DHT22;65701;45.588;5.186;2022-12-01T17:34:28;7.42;78.71
76759;DHT22;65701;45.588;5.186;2022-12-01T17:36:54;7.38;78.69
76759;DHT22;65701;45.588;5.186;2022-12-01T17:39:19;7.35;78.50
76759;DHT22;65701;45.588;5.186;2022-12-01T17:41:45;7.32;78.57
76759;DHT22;65701;45.588;5.186;2022-12-01T17:44:10;7.31;78.55
76759;DHT22;65701;45.588;5.186;2022-12-01T17:46:36;7.29;78.58
76759;DHT22;65701;45.588;5.186;2022-12-01T17:49:05;7.31;78.55
76759;DHT22;65701;45.588;5.186;2022-12-01T17:51:34;7.31;78.61
76759;DHT22;65701;45.588;5.186;2022-12-01T17:54:03;7.32;78.56
76759;DHT22;65701;45.588;5.186;2022-12-01T17:56:57;7.25;78.51
76759;DHT22;65701;45.588;5.186;2022-12-01T17:59:32;7.22;78.39
76759;DHT22;65701;45.588;5.186;2022-12-01T18:01:57;7.21;78.47
76759;DHT22;65701;45.588;5.186;2022-12-01T18:04:23;7.18;78.48
76759;DHT22;65701;45.588;5.186;2022-12-01T18:06:48;7.12;78.35
76759;DHT22;65701;45.588;5.186;2022-12-01T18:09:32;7.14;78.33
76759;DHT22;65701;45.588;5.186;2022-12-01T18:12:07;7.12;78.30
76759;DHT22;65701;45.588;5.186;2022-12-01T18:14:33;7.14;78.41
76759;DHT22;65701;45.588;5.186;2022-12-01T18:16:58;7.08;78.34
76759;DHT22;65701;45.588;5.186;2022-12-01T18:19:24;7.10;78.18
76759;DHT22;65701;45.588;5.186;2022-12-01T18:21:50;7.10;78.22
76759;DHT22;65701;45.588;5.186;2022-12-01T18:24:16;7.11;78.03
76759;DHT22;65701;45.588;5.186;2022-12-01T18:26:42;7.11;78.14
76759;DHT22;65701;45.588;5.186;2022-12-01T18:29:12;7.12;78.18
76759;DHT22;65701;45.588;5.186;2022-12-01T18:31:41;7.15;78.33
76759;DHT22;65701;45.588;5.186;2022-12-01T18:34:13;7.15;78.37
76759;DHT22;65701;45.588;5.186;2022-12-01T18:36:41;7.20;78.38
76759;DHT22;65701;45.588;5.186;2022-12-01T18:39:09;7.20;78.43
76759;DHT22;65701;45.588;5.186;2022-12-01T18:41:35;7.18;78.39
76759;DHT22;65701;45.588;5.186;2022-12-01T18:44:07;7.17;78.35
76759;DHT22;65701;45.588;5.186;2022-12-01T18:46:44;7.14;78.38
76759;DHT22;65701;45.588;5.186;2022-12-01T18:49:18;7.12;78.37
76759;DHT22;65701;45.588;5.186;2022-12-01T19:08:24;7.01;78.04
76759;DHT22;65701;45.588;5.186;2022-12-01T19:11:02;6.97;78.02
76759;DHT22;65701;45.588;5.186;2022-12-01T19:13:31;6.96;78.14
76759;DHT22;65701;45.588;5.186;2022-12-01T19:15:57;6.99;78.17
76759;DHT22;65701;45.588;5.186;2022-12-01T20:03:24;6.72;77.49
76759;DHT22;65701;45.588;5.186;2022-12-01T20:06:09;6.71;77.70
76759;DHT22;65701;45.588;5.186;2022-12-01T20:08:38;6.72;77.74
76759;DHT22;65701;45.588;5.186;2022-12-01T20:11:19;6.71;77.79
76759;DHT22;65701;45.588;5.186;2022-12-01T20:13:50;6.66;77.81
76759;DHT22;65701;45.588;5.186;2022-12-01T20:16:33;6.65;77.76
76759;DHT22;65701;45.588;5.186;2022-12-01T20:19:15;6.63;77.73
